createdAt,value
2023-11-12T00:02:03.213Z,7.80
2023-11-12T00:04:31.237Z,6.63
2023-11-12T00:06:59.080Z,8.02
2023-11-12T00:09:28.414Z,8.73
2023-11-12T00:11:56.391Z,7.65
2023-11-12T00:14:25.205Z,8.32
2023-11-12T00:16:53.089Z,8.15
2023-11-12T00:19:20.999Z,7.82
2023-11-12T00:21:49.720Z,8.68
2023-11-12T00:24:18.853Z,8.77
2023-11-12T00:26:48.708Z,8.82
2023-11-12T00:29:17.326Z,8.10
2023-11-12T00:31:45.284Z,8.18
2023-11-12T00:34:13.226Z,8.15
2023-11-12T00:36:41.824Z,8.32
2023-11-12T00:39:10.606Z,7.72
2023-11-12T00:41:40.048Z,7.28
2023-11-12T00:44:12.204Z,7.90
2023-11-12T00:46:42.420Z,8.05
2023-11-12T00:49:11.151Z,8.55
2023-11-12T00:51:39.075Z,8.27
2023-11-12T00:54:07.179Z,8.00
2023-11-12T00:56:35.108Z,8.15
2023-11-12T00:59:06.255Z,7.80
2023-11-12T01:01:35.834Z,7.43
2023-11-12T01:04:04.509Z,7.75
2023-11-12T01:06:34.637Z,9.20
2023-11-12T01:09:02.571Z,8.07
2023-11-12T01:11:30.622Z,7.85
2023-11-12T01:13:58.681Z,7.65
2023-11-12T01:16:27.140Z,7.57
2023-11-12T01:18:59.930Z,9.05
2023-11-12T01:21:28.662Z,8.23
2023-11-12T01:23:56.994Z,7.75
2023-11-12T01:26:25.331Z,7.45
2023-11-12T01:28:54.370Z,8.30
2023-11-12T01:31:22.322Z,7.18
2023-11-12T01:33:50.291Z,7.60
2023-11-12T01:36:19.610Z,6.45
2023-11-12T01:38:47.602Z,7.53
2023-11-12T01:41:15.571Z,7.80
2023-11-12T01:43:43.880Z,8.55
2023-11-12T01:46:13.560Z,7.68
2023-11-12T01:48:41.941Z,8.35
2023-11-12T01:51:10.370Z,9.45
2023-11-12T01:53:42.025Z,8.10
2023-11-12T01:56:12.922Z,8.60
2023-11-12T01:58:44.287Z,8.20
2023-11-12T02:01:13.670Z,7.25
2023-11-12T02:03:44.378Z,7.30
2023-11-12T02:06:13.924Z,8.73
2023-11-12T02:08:44.126Z,7.07
2023-11-12T02:11:13.536Z,7.68
2023-11-12T02:13:44.212Z,7.55
2023-11-12T02:16:12.570Z,6.43
2023-11-12T02:18:45.731Z,7.72
2023-11-12T02:21:13.806Z,8.38
2023-11-12T02:23:43.102Z,9.50
2023-11-12T02:26:11.241Z,8.48
2023-11-12T02:28:39.940Z,7.57
2023-11-12T02:31:08.372Z,6.57
2023-11-12T02:33:36.547Z,6.63
2023-11-12T02:36:05.201Z,6.60
2023-11-12T02:38:33.151Z,6.50
2023-11-12T02:41:03.385Z,7.82
2023-11-12T02:43:31.360Z,6.88
2023-11-12T02:45:59.584Z,6.40
2023-11-12T02:48:40.494Z,7.65
2023-11-12T02:51:08.655Z,6.45
2023-11-12T02:53:36.540Z,6.47
2023-11-12T02:56:08.102Z,7.35
2023-11-12T02:58:36.439Z,6.50
2023-11-12T03:01:04.543Z,7.20
2023-11-12T03:03:33.003Z,5.93
2023-11-12T03:06:01.020Z,6.82
2023-11-12T03:08:29.038Z,7.47
2023-11-12T03:10:58.144Z,8.32
2023-11-12T03:13:28.117Z,7.22
2023-11-12T03:15:56.236Z,7.25
2023-11-12T03:18:25.287Z,7.93
2023-11-12T03:20:54.373Z,6.20
2023-11-12T03:23:22.247Z,6.57
2023-11-12T03:25:50.679Z,7.20
2023-11-12T03:28:18.673Z,7.95
2023-11-12T03:30:48.016Z,7.70
2023-11-12T03:33:16.074Z,7.22
2023-11-12T03:35:44.076Z,7.57
2023-11-12T03:38:11.942Z,6.80
2023-11-12T03:40:39.883Z,6.85
2023-11-12T03:43:07.846Z,6.13
2023-11-12T03:45:35.698Z,5.93
2023-11-12T03:48:05.411Z,5.85
2023-11-12T03:50:33.390Z,6.07
2023-11-12T03:53:01.656Z,6.97
2023-11-12T03:55:29.915Z,7.80
2023-11-12T03:57:58.003Z,6.20
2023-11-12T04:00:25.970Z,6.25
2023-11-12T04:02:54.514Z,7.85
2023-11-12T04:05:23.791Z,6.40
2023-11-12T04:07:53.103Z,6.20
2023-11-12T04:10:21.319Z,6.32
2023-11-12T04:12:49.544Z,8.15
2023-11-12T04:15:18.044Z,6.03
2023-11-12T04:17:46.288Z,7.03
2023-11-12T04:20:16.089Z,5.65
2023-11-12T04:22:46.723Z,6.43
2023-11-12T04:25:15.061Z,6.40
2023-11-12T04:27:43.057Z,6.57
2023-11-12T04:30:11.732Z,6.30
2023-11-12T04:32:39.992Z,6.30
2023-11-12T04:35:08.986Z,6.90
2023-11-12T04:37:37.075Z,6.25
2023-11-12T04:40:07.796Z,6.68
2023-11-12T04:42:35.696Z,8.05
2023-11-12T04:45:03.842Z,6.65
2023-11-12T04:47:31.846Z,6.00
2023-11-12T04:50:00.429Z,5.93
2023-11-12T04:52:28.774Z,6.75
2023-11-12T04:54:56.605Z,6.43
2023-11-12T04:57:25.954Z,6.90
2023-11-12T04:59:54.428Z,5.72
2023-11-12T05:02:22.701Z,6.82
2023-11-12T05:04:50.542Z,6.55
2023-11-12T05:07:18.540Z,6.82
2023-11-12T05:09:46.899Z,6.68
2023-11-12T05:12:16.696Z,6.45
2023-11-12T05:14:46.324Z,6.10
2023-11-12T05:17:14.615Z,6.57
2023-11-12T05:19:42.476Z,7.22
2023-11-12T05:22:10.350Z,6.85
2023-11-12T05:24:38.555Z,6.93
2023-11-12T05:27:07.525Z,6.97
2023-11-12T05:29:35.407Z,7.03
2023-11-12T05:32:04.940Z,6.00
2023-11-12T05:34:32.895Z,5.35
2023-11-12T05:37:00.894Z,7.35
2023-11-12T05:39:28.792Z,6.45
2023-11-12T05:41:56.649Z,6.45
2023-11-12T05:44:24.513Z,6.53
2023-11-12T05:46:52.394Z,7.63
2023-11-12T05:49:21.703Z,7.53
2023-11-12T05:51:49.636Z,5.97
2023-11-12T05:54:20.478Z,6.60
2023-11-12T05:56:48.502Z,8.00
2023-11-12T05:59:16.893Z,6.35
2023-11-12T06:01:44.813Z,8.82
2023-11-12T06:04:12.898Z,5.72
2023-11-12T06:06:42.669Z,6.80
2023-11-12T06:09:10.591Z,5.72
2023-11-12T06:11:39.206Z,5.97
2023-11-12T06:14:07.391Z,5.93
2023-11-12T06:16:36.860Z,5.43
2023-11-12T06:19:05.025Z,5.82
2023-11-12T06:21:33.186Z,6.22
2023-11-12T06:24:02.887Z,6.38
2023-11-12T06:26:35.144Z,6.78
2023-11-12T06:29:03.194Z,4.78
2023-11-12T06:31:31.371Z,4.38
2023-11-12T06:33:59.712Z,5.57
2023-11-12T06:36:27.652Z,5.75
2023-11-12T06:38:56.252Z,4.78
2023-11-12T06:41:25.633Z,4.95
2023-11-12T06:43:53.588Z,4.78
2023-11-12T06:46:21.541Z,5.57
2023-11-12T06:48:49.609Z,5.15
2023-11-12T06:51:22.670Z,5.05
2023-11-12T06:53:50.748Z,5.70
2023-11-12T06:56:18.813Z,5.00
2023-11-12T06:58:49.554Z,5.60
2023-11-12T07:01:17.652Z,4.18
2023-11-12T07:03:46.138Z,5.07
2023-11-12T07:06:14.140Z,5.38
2023-11-12T07:08:42.671Z,4.95
2023-11-12T07:11:11.458Z,4.90
2023-11-12T07:13:39.332Z,6.68
2023-11-12T07:16:17.759Z,5.18
2023-11-12T07:18:53.584Z,5.47
2023-11-12T07:21:27.262Z,4.65
2023-11-12T07:23:55.710Z,4.45
2023-11-12T07:26:25.395Z,5.78
2023-11-12T07:28:54.164Z,4.72
2023-11-12T07:31:25.603Z,5.18
2023-11-12T07:33:54.189Z,4.85
2023-11-12T07:36:23.283Z,4.55
2023-11-12T07:38:51.814Z,4.80
2023-11-12T07:41:19.897Z,4.97
2023-11-12T07:43:47.916Z,4.63
2023-11-12T07:46:15.833Z,5.00
2023-11-12T07:48:45.301Z,4.78
2023-11-12T07:51:13.763Z,6.20
2023-11-12T07:53:42.135Z,4.78
2023-11-12T07:58:51.476Z,5.38
2023-11-12T08:01:19.515Z,5.03
2023-11-12T08:03:48.920Z,4.45
2023-11-12T08:06:16.995Z,4.13
2023-11-12T08:08:44.948Z,5.05
2023-11-12T08:11:12.904Z,5.00
2023-11-12T08:13:41.157Z,4.35
2023-11-12T08:16:10.964Z,4.93
2023-11-12T08:18:40.611Z,5.22
2023-11-12T08:21:10.902Z,5.75
2023-11-12T08:23:38.981Z,5.35
2023-11-12T08:26:07.022Z,5.30
2023-11-12T08:28:34.913Z,6.00
2023-11-12T08:31:02.851Z,5.03
2023-11-12T08:33:30.853Z,5.85
2023-11-12T08:35:58.921Z,4.38
2023-11-12T08:38:28.271Z,6.20
2023-11-12T08:40:56.223Z,5.65
2023-11-12T08:43:25.220Z,4.63
2023-11-12T08:45:53.297Z,5.85
2023-11-12T08:48:21.753Z,5.38
2023-11-12T08:50:50.933Z,5.43
2023-11-12T08:53:18.872Z,5.55
2023-11-12T08:55:48.337Z,4.07
2023-11-12T08:58:16.237Z,5.25
2023-11-12T09:00:44.249Z,5.60
2023-11-12T09:03:12.242Z,5.50
2023-11-12T09:05:40.119Z,5.57
2023-11-12T09:08:09.092Z,5.40
2023-11-12T09:10:36.976Z,5.18
2023-11-12T09:13:06.291Z,5.18
2023-11-12T09:15:34.915Z,5.97
2023-11-12T09:18:03.428Z,4.88
2023-11-12T09:20:31.397Z,5.20
2023-11-12T09:22:59.429Z,6.53
2023-11-12T09:25:28.260Z,5.22
2023-11-12T09:27:57.028Z,5.35
2023-11-12T09:30:28.387Z,5.47
2023-11-12T09:32:59.831Z,4.68
2023-11-12T09:35:27.806Z,5.45
2023-11-12T09:37:55.676Z,6.35
2023-11-12T09:40:23.603Z,4.40
2023-11-12T09:42:55.025Z,5.63
2023-11-12T09:45:23.657Z,5.78
2023-11-12T09:48:04.428Z,5.95
2023-11-12T09:50:32.804Z,5.55
2023-11-12T09:53:04.328Z,6.07
2023-11-12T09:55:32.936Z,5.53
2023-11-12T09:58:02.810Z,6.40
2023-11-12T10:00:35.796Z,6.07
2023-11-12T10:05:36.937Z,5.00
2023-11-12T10:08:06.662Z,6.78
2023-11-12T10:10:35.993Z,6.22
2023-11-12T10:13:05.977Z,4.38
2023-11-12T10:15:36.170Z,4.28
2023-11-12T10:18:07.780Z,4.43
2023-11-12T10:20:40.046Z,5.50
2023-11-12T10:23:30.559Z,4.97
2023-11-12T10:28:35.723Z,4.40
2023-11-12T10:31:04.298Z,6.20
2023-11-12T10:33:35.254Z,5.18
2023-11-12T10:36:10.162Z,5.13
2023-11-12T10:38:48.627Z,4.45
2023-11-12T10:41:17.173Z,4.72
2023-11-12T10:43:59.719Z,4.75
2023-11-12T10:46:29.120Z,4.57
2023-11-12T10:48:59.099Z,5.30
2023-11-12T10:51:28.323Z,5.75
2023-11-12T10:54:00.082Z,5.22
2023-11-12T10:56:29.645Z,7.40
2023-11-12T10:58:58.967Z,5.30
2023-11-12T11:01:27.565Z,4.57
2023-11-12T11:03:56.017Z,5.22
2023-11-12T11:06:28.172Z,5.78
2023-11-12T11:08:57.076Z,4.67
2023-11-12T11:11:25.990Z,4.97
2023-11-12T11:13:54.083Z,5.32
2023-11-12T11:16:47.991Z,4.85
2023-11-12T11:19:16.046Z,4.38
2023-11-12T11:22:24.074Z,5.57
2023-11-12T11:24:53.198Z,4.65
2023-11-12T11:27:22.729Z,5.25
2023-11-12T11:30:09.836Z,5.13
2023-11-12T11:32:38.544Z,4.78
2023-11-12T11:35:19.076Z,5.70
2023-11-12T11:38:18.073Z,4.55
2023-11-12T11:40:57.944Z,5.13
2023-11-12T11:43:33.792Z,5.40
2023-11-12T11:46:15.943Z,4.90
2023-11-12T11:49:18.725Z,6.03
2023-11-12T11:51:47.839Z,4.93
2023-11-12T11:54:17.350Z,5.88
2023-11-12T11:56:47.159Z,5.82
2023-11-12T11:59:15.197Z,6.03
2023-11-12T12:01:44.532Z,5.72
2023-11-12T12:04:12.907Z,6.35
2023-11-12T12:06:45.101Z,5.38
2023-11-12T12:09:18.738Z,5.00
2023-11-12T12:11:52.503Z,6.18
2023-11-12T12:14:21.662Z,5.25
2023-11-12T12:16:49.930Z,5.75
2023-11-12T12:19:19.543Z,6.03
2023-11-12T12:21:50.365Z,5.05
2023-11-12T12:24:19.632Z,5.53
2023-11-12T12:26:52.840Z,4.90
2023-11-12T12:29:22.524Z,5.18
2023-11-12T12:31:51.808Z,5.10
2023-11-12T12:34:20.990Z,5.15
2023-11-12T12:36:56.829Z,7.22
2023-11-12T12:39:27.784Z,4.57
2023-11-12T12:42:05.621Z,6.30
2023-11-12T12:44:34.455Z,4.50
2023-11-12T12:47:02.730Z,5.28
2023-11-12T12:49:34.801Z,5.00
2023-11-12T12:52:04.127Z,4.80
2023-11-12T12:54:32.407Z,4.88
2023-11-12T12:57:02.259Z,4.82
2023-11-12T12:59:36.169Z,5.25
2023-11-12T13:02:04.542Z,3.85
2023-11-12T13:04:34.017Z,5.03
2023-11-12T13:07:07.778Z,4.53
2023-11-12T13:09:37.867Z,4.97
2023-11-12T13:12:08.847Z,4.47
2023-11-12T13:14:38.743Z,5.05
2023-11-12T13:17:06.616Z,4.78
2023-11-12T13:19:34.738Z,6.50
2023-11-12T13:22:04.518Z,4.70
2023-11-12T13:24:35.385Z,3.70
2023-11-12T13:27:04.002Z,4.80
2023-11-12T13:29:33.324Z,4.20
2023-11-12T13:32:01.669Z,5.50
2023-11-12T13:34:29.589Z,4.40
2023-11-12T13:36:57.937Z,5.70
2023-11-12T13:39:25.894Z,4.53
2023-11-12T13:41:55.891Z,5.57
2023-11-12T13:44:25.820Z,4.95
2023-11-12T13:46:55.256Z,4.20
2023-11-12T13:49:23.354Z,4.22
2023-11-12T13:51:51.713Z,6.07
2023-11-12T13:54:20.413Z,4.60
2023-11-12T13:56:48.907Z,4.82
2023-11-12T13:59:18.054Z,5.53
2023-11-12T14:01:46.581Z,4.45
2023-11-12T14:04:16.314Z,5.18
2023-11-12T14:06:44.729Z,4.85
2023-11-12T14:09:13.396Z,5.13
2023-11-12T14:11:41.741Z,5.18
2023-11-12T14:14:09.795Z,4.43
2023-11-12T14:16:38.856Z,5.47
2023-11-12T14:19:12.092Z,4.90
2023-11-12T14:21:43.394Z,3.80
2023-11-12T14:24:12.730Z,4.90
2023-11-12T14:26:45.308Z,4.30
2023-11-12T14:29:13.703Z,4.85
2023-11-12T14:31:41.906Z,6.20
2023-11-12T14:34:14.305Z,4.45
2023-11-12T14:36:44.658Z,5.95
2023-11-12T14:39:18.968Z,4.65
2023-11-12T14:41:49.507Z,4.88
2023-11-12T14:44:18.197Z,4.65
2023-11-12T14:46:46.478Z,4.22
2023-11-12T14:49:14.962Z,6.25
2023-11-12T14:51:47.438Z,5.20
2023-11-12T14:54:16.040Z,5.97
2023-11-12T14:56:44.201Z,6.28
2023-11-12T14:59:13.347Z,5.38
2023-11-12T15:01:46.713Z,6.35
2023-11-12T15:04:16.938Z,5.88
2023-11-12T15:06:46.650Z,6.25
2023-11-12T15:09:16.419Z,6.22
2023-11-12T15:11:44.639Z,5.05
2023-11-12T15:14:12.820Z,5.93
2023-11-12T15:16:41.122Z,4.20
2023-11-12T15:19:11.671Z,4.88
2023-11-12T15:21:43.331Z,5.32
2023-11-12T15:24:13.558Z,7.60
2023-11-12T15:26:42.770Z,4.72
2023-11-12T15:29:11.090Z,5.30
2023-11-12T15:31:39.532Z,5.43
2023-11-12T15:34:11.711Z,6.60
2023-11-12T15:36:40.473Z,6.32
2023-11-12T15:39:09.654Z,6.43
2023-11-12T15:41:40.271Z,6.90
2023-11-12T15:44:10.836Z,4.95
2023-11-12T15:46:41.265Z,6.70
2023-11-12T15:49:09.317Z,4.93
2023-11-12T15:51:37.274Z,6.85
2023-11-12T15:54:05.886Z,8.00
2023-11-12T15:56:33.731Z,7.88
2023-11-12T15:59:02.976Z,8.23
2023-11-12T16:01:30.905Z,6.07
2023-11-12T16:03:59.020Z,9.48
2023-11-12T16:06:30.190Z,9.15
2023-11-12T16:08:58.123Z,6.80
2023-11-12T16:11:29.267Z,8.45
2023-11-12T16:13:58.369Z,7.47
2023-11-12T16:16:27.863Z,7.78
2023-11-12T16:18:55.825Z,8.02
2023-11-12T16:21:24.346Z,8.35
2023-11-12T16:23:52.539Z,7.32
2023-11-12T16:26:20.935Z,7.32
2023-11-12T16:28:48.896Z,6.50
2023-11-12T16:31:16.858Z,8.40
2023-11-12T16:33:46.355Z,5.55
2023-11-12T16:36:14.535Z,5.68
2023-11-12T16:38:42.427Z,6.88
2023-11-12T16:41:10.289Z,6.10
2023-11-12T16:43:38.280Z,6.25
2023-11-12T16:46:06.278Z,6.80
2023-11-12T16:48:34.266Z,7.25
2023-11-12T16:51:04.551Z,5.82
2023-11-12T16:53:32.854Z,7.22
2023-11-12T16:56:02.490Z,6.72
2023-11-12T16:58:30.681Z,6.78
2023-11-12T17:00:58.648Z,6.25
2023-11-12T17:03:26.684Z,5.70
2023-11-12T17:05:54.633Z,7.18
2023-11-12T17:08:23.948Z,6.70
2023-11-12T17:10:53.479Z,8.50
2023-11-12T17:13:22.546Z,6.03
2023-11-12T17:15:50.842Z,8.82
2023-11-12T17:18:19.697Z,8.15
2023-11-12T17:20:48.969Z,8.15
2023-11-12T17:23:16.918Z,7.35
2023-11-12T17:25:46.205Z,8.63
2023-11-12T17:28:14.153Z,7.43
2023-11-12T17:30:42.924Z,8.55
2023-11-12T17:33:10.973Z,6.80
2023-11-12T17:35:40.032Z,6.65
2023-11-12T17:38:08.016Z,6.95
2023-11-12T17:40:37.517Z,7.10
2023-11-12T17:43:07.151Z,7.82
2023-11-12T17:45:35.564Z,7.57
2023-11-12T17:48:04.855Z,9.02
2023-11-12T17:50:34.111Z,8.05
2023-11-12T17:53:02.103Z,7.90
2023-11-12T17:55:30.021Z,7.15
2023-11-12T17:58:00.763Z,8.23
2023-11-12T18:00:30.381Z,7.88
2023-11-12T18:02:58.408Z,8.93
2023-11-12T18:05:27.340Z,6.95
2023-11-12T18:07:55.464Z,9.73
2023-11-12T18:10:23.369Z,7.28
2023-11-12T18:12:51.396Z,7.07
2023-11-12T18:15:20.445Z,9.30
2023-11-12T18:17:49.763Z,9.52
2023-11-12T18:20:18.789Z,9.10
2023-11-12T18:22:46.697Z,8.32
2023-11-12T18:25:14.572Z,10.60
2023-11-12T18:27:42.929Z,9.00
2023-11-12T18:30:11.737Z,9.23
2023-11-12T18:32:39.791Z,9.10
2023-11-12T18:35:10.884Z,8.15
2023-11-12T18:37:40.981Z,8.65
2023-11-12T18:40:15.855Z,8.00
2023-11-12T18:42:44.149Z,9.23
2023-11-12T18:45:14.409Z,10.88
2023-11-12T18:47:44.098Z,8.60
2023-11-12T18:50:14.022Z,10.10
2023-11-12T18:52:42.709Z,7.80
2023-11-12T18:55:10.651Z,8.07
2023-11-12T18:57:38.618Z,8.88
2023-11-12T19:00:07.964Z,8.00
2023-11-12T19:02:36.373Z,7.18
2023-11-12T19:05:04.754Z,8.48
2023-11-12T19:07:34.314Z,9.13
2023-11-12T19:10:02.327Z,8.65
2023-11-12T19:12:30.368Z,7.72
2023-11-12T19:15:00.010Z,10.45
2023-11-12T19:17:29.078Z,7.15
2023-11-12T19:19:57.048Z,7.82
2023-11-12T19:22:24.964Z,7.90
2023-11-12T19:24:54.522Z,8.18
2023-11-12T19:27:27.043Z,8.43
2023-11-12T19:30:02.720Z,9.05
2023-11-12T19:32:37.095Z,8.95
2023-11-12T19:35:05.760Z,9.25
2023-11-12T19:37:35.451Z,8.20
2023-11-12T19:40:05.231Z,8.25
2023-11-12T19:42:33.269Z,9.38
2023-11-12T19:45:01.226Z,9.02
2023-11-12T19:47:32.393Z,9.93
2023-11-12T19:50:00.639Z,10.75
2023-11-12T19:52:29.607Z,9.00
2023-11-12T19:54:57.758Z,10.68
2023-11-12T19:57:28.044Z,9.82
2023-11-12T19:59:57.106Z,9.20
2023-11-12T20:02:24.989Z,9.63
2023-11-12T20:04:53.096Z,8.93
2023-11-12T20:07:21.230Z,10.38
2023-11-12T20:09:50.067Z,10.02
2023-11-12T20:12:18.092Z,8.45
2023-11-12T20:14:49.979Z,8.07
2023-11-12T20:17:18.136Z,8.95
2023-11-12T20:19:46.048Z,8.63
2023-11-12T20:22:18.652Z,9.13
2023-11-12T20:24:51.228Z,8.77
2023-11-12T20:27:20.031Z,9.10
2023-11-12T20:29:51.023Z,9.23
2023-11-12T20:32:19.341Z,10.15
2023-11-12T20:34:47.274Z,9.45
2023-11-12T20:37:17.127Z,9.65
2023-11-12T20:39:45.395Z,8.20
2023-11-12T20:42:14.693Z,10.63
2023-11-12T20:44:43.228Z,10.00
2023-11-12T20:47:13.677Z,11.85
2023-11-12T20:49:41.951Z,9.90
2023-11-12T20:52:10.695Z,10.95
2023-11-12T20:54:39.336Z,9.52
2023-11-12T20:57:08.013Z,8.15
2023-11-12T20:59:37.529Z,8.85
2023-11-12T21:02:14.535Z,8.68
2023-11-12T21:04:51.713Z,8.45
2023-11-12T21:07:21.108Z,9.13
2023-11-12T21:09:50.681Z,8.15
2023-11-12T21:12:18.944Z,9.40
2023-11-12T21:14:48.149Z,7.97
2023-11-12T21:17:17.562Z,9.70
2023-11-12T21:19:45.571Z,8.27
2023-11-12T21:22:14.809Z,9.45
2023-11-12T21:24:44.179Z,9.52
2023-11-12T21:27:13.765Z,7.40
2023-11-12T21:29:41.918Z,8.90
2023-11-12T21:32:10.610Z,9.75
2023-11-12T21:34:39.140Z,8.10
2023-11-12T21:37:07.595Z,8.15
2023-11-12T21:39:38.156Z,7.47
2023-11-12T21:42:07.253Z,7.95
2023-11-12T21:44:36.563Z,8.15
2023-11-12T21:47:05.050Z,8.57
2023-11-12T21:49:33.019Z,8.38
2023-11-12T21:52:01.205Z,7.93
2023-11-12T21:54:29.104Z,7.97
2023-11-12T21:56:58.437Z,8.85
2023-11-12T21:59:26.265Z,8.50
2023-11-12T22:01:54.407Z,7.15
2023-11-12T22:04:26.104Z,9.00
2023-11-12T22:06:54.123Z,8.90
2023-11-12T22:09:22.100Z,8.63
2023-11-12T22:11:51.874Z,8.68
2023-11-12T22:14:21.176Z,8.07
2023-11-12T22:16:49.231Z,8.57
2023-11-12T22:19:17.269Z,7.07
2023-11-12T22:21:45.391Z,8.82
2023-11-12T22:24:13.294Z,9.20
2023-11-12T22:26:41.624Z,8.38
2023-11-12T22:29:09.981Z,7.95
2023-11-12T22:31:39.328Z,7.78
2023-11-12T22:34:07.512Z,8.52
2023-11-12T22:36:35.502Z,7.82
2023-11-12T22:39:05.973Z,8.60
2023-11-12T22:41:34.017Z,9.13
2023-11-12T22:44:01.892Z,8.13
2023-11-12T22:46:29.873Z,7.97
2023-11-12T22:48:59.301Z,8.18
2023-11-12T22:51:27.204Z,9.23
2023-11-12T22:53:55.013Z,9.98
2023-11-12T22:56:22.908Z,8.38
2023-11-12T22:58:51.271Z,8.65
2023-11-12T23:01:21.445Z,8.40
2023-11-12T23:03:49.867Z,7.78
2023-11-12T23:06:20.965Z,7.75
2023-11-12T23:08:48.887Z,7.78
2023-11-12T23:11:17.051Z,7.35
2023-11-12T23:13:44.970Z,8.07
2023-11-12T23:16:13.716Z,9.02
2023-11-12T23:18:41.747Z,6.63
2023-11-12T23:21:11.218Z,8.07
2023-11-12T23:23:40.739Z,8.50
2023-11-12T23:26:09.310Z,8.02
2023-11-12T23:28:38.648Z,8.25
2023-11-12T23:31:06.971Z,7.88
2023-11-12T23:33:35.687Z,6.88
2023-11-12T23:36:05.900Z,8.75
2023-11-12T23:38:33.898Z,7.78
2023-11-12T23:41:03.147Z,6.90
2023-11-12T23:43:31.070Z,8.02
2023-11-12T23:45:59.876Z,7.43
2023-11-12T23:48:28.105Z,8.57
2023-11-12T23:50:56.279Z,7.70
2023-11-12T23:53:24.412Z,8.63
2023-11-12T23:55:52.285Z,8.38
2023-11-12T23:58:21.766Z,7.18
